sensor_id;sensor_type;location;lat;lon;timestamp;P1;durP1;ratioP1;P2;durP2;ratioP2
9888;SDS011;4983;42.112;24.738;2023-08-06T00:00:07;3.07;;;2.63;;
9888;SDS011;4983;42.112;24.738;2023-08-06T00:02:35;3.07;;;2.80;;
9888;SDS011;4983;42.112;24.738;2023-08-06T00:05:02;2.90;;;2.30;;
9888;SDS011;4983;42.112;24.738;2023-08-06T00:07:30;4.33;;;2.83;;
9888;SDS011;4983;42.112;24.738;2023-08-06T00:09:57;3.23;;;2.77;;
9888;SDS011;4983;42.112;24.738;2023-08-06T00:12:26;5.80;;;3.23;;
9888;SDS011;4983;42.112;24.738;2023-08-06T00:14:53;3.30;;;2.87;;
9888;SDS011;4983;42.112;24.738;2023-08-06T00:17:20;4.43;;;2.83;;
9888;SDS011;4983;42.112;24.738;2023-08-06T00:19:48;4.43;;;2.97;;
9888;SDS011;4983;42.112;24.738;2023-08-06T00:22:15;3.00;;;2.57;;
9888;SDS011;4983;42.112;24.738;2023-08-06T00:24:42;5.20;;;3.40;;
9888;SDS011;4983;42.112;24.738;2023-08-06T00:27:10;8.43;;;3.00;;
9888;SDS011;4983;42.112;24.738;2023-08-06T00:29:38;4.13;;;2.93;;
9888;SDS011;4983;42.112;24.738;2023-08-06T00:32:05;3.90;;;3.27;;
9888;SDS011;4983;42.112;24.738;2023-08-06T00:34:33;3.87;;;2.80;;
9888;SDS011;4983;42.112;24.738;2023-08-06T00:37:00;4.27;;;2.63;;
9888;SDS011;4983;42.112;24.738;2023-08-06T00:39:28;3.57;;;2.70;;
9888;SDS011;4983;42.112;24.738;2023-08-06T00:41:55;3.33;;;3.03;;
9888;SDS011;4983;42.112;24.738;2023-08-06T00:44:23;5.20;;;3.20;;
9888;SDS011;4983;42.112;24.738;2023-08-06T00:46:52;3.90;;;3.00;;
9888;SDS011;4983;42.112;24.738;2023-08-06T00:49:20;2.93;;;2.73;;
9888;SDS011;4983;42.112;24.738;2023-08-06T00:51:47;4.23;;;2.83;;
9888;SDS011;4983;42.112;24.738;2023-08-06T00:54:15;3.67;;;2.83;;
9888;SDS011;4983;42.112;24.738;2023-08-06T00:56:42;3.10;;;2.80;;
9888;SDS011;4983;42.112;24.738;2023-08-06T00:59:10;3.37;;;3.07;;
9888;SDS011;4983;42.112;24.738;2023-08-06T01:01:39;5.73;;;3.17;;
9888;SDS011;4983;42.112;24.738;2023-08-06T01:04:08;4.27;;;3.10;;
9888;SDS011;4983;42.112;24.738;2023-08-06T01:06:39;4.23;;;2.97;;
9888;SDS011;4983;42.112;24.738;2023-08-06T01:09:15;3.13;;;2.77;;
9888;SDS011;4983;42.112;24.738;2023-08-06T01:11:58;5.20;;;3.03;;
9888;SDS011;4983;42.112;24.738;2023-08-06T01:14:33;3.90;;;2.90;;
9888;SDS011;4983;42.112;24.738;2023-08-06T01:17:10;3.90;;;3.27;;
9888;SDS011;4983;42.112;24.738;2023-08-06T01:19:40;3.77;;;2.60;;
9888;SDS011;4983;42.112;24.738;2023-08-06T01:22:09;3.33;;;3.03;;
9888;SDS011;4983;42.112;24.738;2023-08-06T01:24:37;3.90;;;3.00;;
9888;SDS011;4983;42.112;24.738;2023-08-06T01:27:06;5.00;;;3.27;;
9888;SDS011;4983;42.112;24.738;2023-08-06T01:29:38;3.30;;;3.00;;
9888;SDS011;4983;42.112;24.738;2023-08-06T01:32:11;4.60;;;2.87;;
9888;SDS011;4983;42.112;24.738;2023-08-06T01:34:41;3.40;;;3.00;;
9888;SDS011;4983;42.112;24.738;2023-08-06T01:37:13;3.50;;;3.20;;
9888;SDS011;4983;42.112;24.738;2023-08-06T01:39:42;4.27;;;3.37;;
9888;SDS011;4983;42.112;24.738;2023-08-06T01:42:09;3.07;;;2.63;;
9888;SDS011;4983;42.112;24.738;2023-08-06T01:44:36;4.00;;;2.90;;
9888;SDS011;4983;42.112;24.738;2023-08-06T01:47:04;5.57;;;3.33;;
9888;SDS011;4983;42.112;24.738;2023-08-06T01:49:32;3.37;;;3.07;;
9888;SDS011;4983;42.112;24.738;2023-08-06T01:51:59;5.47;;;3.23;;
9888;SDS011;4983;42.112;24.738;2023-08-06T01:54:29;3.53;;;2.93;;
9888;SDS011;4983;42.112;24.738;2023-08-06T01:56:56;3.87;;;3.10;;
9888;SDS011;4983;42.112;24.738;2023-08-06T01:59:26;3.37;;;3.07;;
9888;SDS011;4983;42.112;24.738;2023-08-06T02:01:54;4.87;;;3.50;;
9888;SDS011;4983;42.112;24.738;2023-08-06T02:04:24;4.03;;;3.17;;
9888;SDS011;4983;42.112;24.738;2023-08-06T02:06:51;4.37;;;3.40;;
9888;SDS011;4983;42.112;24.738;2023-08-06T02:09:19;4.07;;;3.67;;
9888;SDS011;4983;42.112;24.738;2023-08-06T02:11:47;3.77;;;3.13;;
9888;SDS011;4983;42.112;24.738;2023-08-06T02:14:16;3.83;;;3.43;;
9888;SDS011;4983;42.112;24.738;2023-08-06T02:16:44;3.30;;;3.00;;
9888;SDS011;4983;42.112;24.738;2023-08-06T02:19:15;6.10;;;3.60;;
9888;SDS011;4983;42.112;24.738;2023-08-06T02:21:42;3.80;;;3.50;;
9888;SDS011;4983;42.112;24.738;2023-08-06T02:24:14;3.80;;;3.50;;
9888;SDS011;4983;42.112;24.738;2023-08-06T02:26:41;4.17;;;3.77;;
9888;SDS011;4983;42.112;24.738;2023-08-06T02:29:10;4.33;;;3.93;;
9888;SDS011;4983;42.112;24.738;2023-08-06T02:31:37;6.23;;;4.10;;
9888;SDS011;4983;42.112;24.738;2023-08-06T02:34:04;5.53;;;4.13;;
9888;SDS011;4983;42.112;24.738;2023-08-06T02:36:33;4.60;;;3.97;;
9888;SDS011;4983;42.112;24.738;2023-08-06T02:39:00;4.73;;;3.90;;
9888;SDS011;4983;42.112;24.738;2023-08-06T02:41:27;4.93;;;4.03;;
9888;SDS011;4983;42.112;24.738;2023-08-06T02:43:54;6.03;;;4.70;;
9888;SDS011;4983;42.112;24.738;2023-08-06T02:46:22;5.10;;;4.60;;
9888;SDS011;4983;42.112;24.738;2023-08-06T02:48:50;5.57;;;4.80;;
9888;SDS011;4983;42.112;24.738;2023-08-06T02:51:17;7.87;;;4.70;;
9888;SDS011;4983;42.112;24.738;2023-08-06T02:53:44;8.10;;;4.83;;
9888;SDS011;4983;42.112;24.738;2023-08-06T02:56:11;5.37;;;4.87;;
9888;SDS011;4983;42.112;24.738;2023-08-06T02:58:39;6.63;;;5.20;;
9888;SDS011;4983;42.112;24.738;2023-08-06T03:01:06;6.30;;;4.43;;
9888;SDS011;4983;42.112;24.738;2023-08-06T03:03:35;5.10;;;4.60;;
9888;SDS011;4983;42.112;24.738;2023-08-06T03:06:02;7.33;;;5.63;;
9888;SDS011;4983;42.112;24.738;2023-08-06T03:08:29;6.03;;;5.37;;
9888;SDS011;4983;42.112;24.738;2023-08-06T03:10:56;4.87;;;4.37;;
9888;SDS011;4983;42.112;24.738;2023-08-06T03:13:23;5.27;;;4.77;;
9888;SDS011;4983;42.112;24.738;2023-08-06T03:15:51;6.07;;;5.30;;
9888;SDS011;4983;42.112;24.738;2023-08-06T03:18:19;6.10;;;4.90;;
9888;SDS011;4983;42.112;24.738;2023-08-06T03:20:48;5.03;;;4.43;;
9888;SDS011;4983;42.112;24.738;2023-08-06T03:23:15;6.03;;;4.90;;
9888;SDS011;4983;42.112;24.738;2023-08-06T03:25:43;5.07;;;4.50;;
9888;SDS011;4983;42.112;24.738;2023-08-06T03:28:10;5.33;;;4.83;;
9888;SDS011;4983;42.112;24.738;2023-08-06T03:30:37;5.30;;;4.80;;
9888;SDS011;4983;42.112;24.738;2023-08-06T03:33:04;5.43;;;4.63;;
9888;SDS011;4983;42.112;24.738;2023-08-06T03:35:33;6.40;;;5.30;;
9888;SDS011;4983;42.112;24.738;2023-08-06T03:38:03;6.27;;;5.07;;
9888;SDS011;4983;42.112;24.738;2023-08-06T03:40:30;6.10;;;5.20;;
9888;SDS011;4983;42.112;24.738;2023-08-06T03:42:57;5.70;;;5.13;;
9888;SDS011;4983;42.112;24.738;2023-08-06T03:45:24;6.13;;;5.10;;
9888;SDS011;4983;42.112;24.738;2023-08-06T03:47:51;6.40;;;5.47;;
9888;SDS011;4983;42.112;24.738;2023-08-06T03:50:18;7.50;;;5.80;;
9888;SDS011;4983;42.112;24.738;2023-08-06T03:52:45;6.47;;;5.70;;
9888;SDS011;4983;42.112;24.738;2023-08-06T03:55:14;6.43;;;5.73;;
9888;SDS011;4983;42.112;24.738;2023-08-06T03:57:41;7.93;;;5.70;;
9888;SDS011;4983;42.112;24.738;2023-08-06T04:00:09;6.20;;;5.60;;
9888;SDS011;4983;42.112;24.738;2023-08-06T04:02:36;10.13;;;6.53;;
9888;SDS011;4983;42.112;24.738;2023-08-06T04:05:04;7.73;;;5.87;;
9888;SDS011;4983;42.112;24.738;2023-08-06T04:07:31;8.70;;;6.00;;
9888;SDS011;4983;42.112;24.738;2023-08-06T04:09:59;7.30;;;6.27;;
9888;SDS011;4983;42.112;24.738;2023-08-06T04:12:28;6.73;;;5.37;;
9888;SDS011;4983;42.112;24.738;2023-08-06T04:14:56;6.83;;;6.13;;
9888;SDS011;4983;42.112;24.738;2023-08-06T04:17:24;7.00;;;5.77;;
9888;SDS011;4983;42.112;24.738;2023-08-06T04:19:52;7.13;;;5.93;;
9888;SDS011;4983;42.112;24.738;2023-08-06T04:22:20;7.13;;;6.20;;
9888;SDS011;4983;42.112;24.738;2023-08-06T04:24:48;7.23;;;6.00;;
9888;SDS011;4983;42.112;24.738;2023-08-06T04:27:15;7.97;;;6.53;;
9888;SDS011;4983;42.112;24.738;2023-08-06T04:29:44;9.13;;;6.67;;
9888;SDS011;4983;42.112;24.738;2023-08-06T04:32:11;7.77;;;6.10;;
9888;SDS011;4983;42.112;24.738;2023-08-06T04:34:39;8.40;;;7.13;;
9888;SDS011;4983;42.112;24.738;2023-08-06T04:37:06;9.43;;;7.03;;
9888;SDS011;4983;42.112;24.738;2023-08-06T04:39:34;8.00;;;6.33;;
9888;SDS011;4983;42.112;24.738;2023-08-06T04:42:01;9.03;;;6.17;;
9888;SDS011;4983;42.112;24.738;2023-08-06T04:44:28;7.13;;;6.03;;
9888;SDS011;4983;42.112;24.738;2023-08-06T04:46:56;7.27;;;6.47;;
9888;SDS011;4983;42.112;24.738;2023-08-06T04:49:24;8.90;;;6.40;;
9888;SDS011;4983;42.112;24.738;2023-08-06T04:51:51;8.37;;;6.53;;
9888;SDS011;4983;42.112;24.738;2023-08-06T04:54:18;9.90;;;7.10;;
9888;SDS011;4983;42.112;24.738;2023-08-06T04:56:45;7.40;;;6.57;;
9888;SDS011;4983;42.112;24.738;2023-08-06T04:59:13;8.60;;;6.50;;
9888;SDS011;4983;42.112;24.738;2023-08-06T05:01:40;7.50;;;6.70;;
9888;SDS011;4983;42.112;24.738;2023-08-06T05:04:08;12.23;;;7.17;;
9888;SDS011;4983;42.112;24.738;2023-08-06T05:06:35;7.30;;;6.20;;
9888;SDS011;4983;42.112;24.738;2023-08-06T05:09:03;7.67;;;6.23;;
9888;SDS011;4983;42.112;24.738;2023-08-06T05:11:31;9.17;;;6.57;;
9888;SDS011;4983;42.112;24.738;2023-08-06T05:13:58;8.20;;;6.93;;
9888;SDS011;4983;42.112;24.738;2023-08-06T05:16:27;8.27;;;6.47;;
9888;SDS011;4983;42.112;24.738;2023-08-06T05:18:54;9.80;;;7.40;;
9888;SDS011;4983;42.112;24.738;2023-08-06T05:21:22;7.83;;;7.03;;
9888;SDS011;4983;42.112;24.738;2023-08-06T05:23:49;6.13;;;4.60;;
9888;SDS011;4983;42.112;24.738;2023-08-06T05:26:17;4.57;;;3.40;;
9888;SDS011;4983;42.112;24.738;2023-08-06T05:28:44;5.77;;;2.83;;
9888;SDS011;4983;42.112;24.738;2023-08-06T05:31:12;3.77;;;2.90;;
9888;SDS011;4983;42.112;24.738;2023-08-06T05:33:39;3.63;;;2.93;;
9888;SDS011;4983;42.112;24.738;2023-08-06T05:36:06;3.17;;;2.87;;
9888;SDS011;4983;42.112;24.738;2023-08-06T05:38:34;2.93;;;2.70;;
9888;SDS011;4983;42.112;24.738;2023-08-06T05:41:03;5.63;;;2.77;;
9888;SDS011;4983;42.112;24.738;2023-08-06T05:43:30;3.10;;;2.80;;
9888;SDS011;4983;42.112;24.738;2023-08-06T05:45:57;3.17;;;2.43;;
9888;SDS011;4983;42.112;24.738;2023-08-06T05:48:24;3.20;;;2.33;;
9888;SDS011;4983;42.112;24.738;2023-08-06T05:50:53;3.50;;;2.60;;
9888;SDS011;4983;42.112;24.738;2023-08-06T05:53:20;2.90;;;2.60;;
9888;SDS011;4983;42.112;24.738;2023-08-06T05:55:48;5.57;;;2.70;;
9888;SDS011;4983;42.112;24.738;2023-08-06T05:58:16;4.60;;;2.90;;
9888;SDS011;4983;42.112;24.738;2023-08-06T06:00:46;2.97;;;2.67;;
9888;SDS011;4983;42.112;24.738;2023-08-06T06:03:14;3.47;;;2.80;;
9888;SDS011;4983;42.112;24.738;2023-08-06T06:05:41;3.10;;;2.70;;
9888;SDS011;4983;42.112;24.738;2023-08-06T06:08:10;3.33;;;2.70;;
9888;SDS011;4983;42.112;24.738;2023-08-06T06:10:37;5.27;;;3.10;;
9888;SDS011;4983;42.112;24.738;2023-08-06T06:13:06;3.50;;;2.77;;
9888;SDS011;4983;42.112;24.738;2023-08-06T06:15:33;3.20;;;2.40;;
9888;SDS011;4983;42.112;24.738;2023-08-06T06:18:01;3.07;;;2.73;;
9888;SDS011;4983;42.112;24.738;2023-08-06T06:20:28;2.87;;;2.60;;
9888;SDS011;4983;42.112;24.738;2023-08-06T06:22:58;4.90;;;2.60;;
9888;SDS011;4983;42.112;24.738;2023-08-06T06:25:25;3.80;;;3.40;;
9888;SDS011;4983;42.112;24.738;2023-08-06T06:27:52;5.87;;;3.13;;
9888;SDS011;4983;42.112;24.738;2023-08-06T06:30:21;3.23;;;2.60;;
9888;SDS011;4983;42.112;24.738;2023-08-06T06:32:48;3.40;;;2.97;;
9888;SDS011;4983;42.112;24.738;2023-08-06T06:35:15;2.77;;;2.50;;
9888;SDS011;4983;42.112;24.738;2023-08-06T06:37:43;3.67;;;3.10;;
9888;SDS011;4983;42.112;24.738;2023-08-06T06:40:10;5.23;;;3.20;;
9888;SDS011;4983;42.112;24.738;2023-08-06T06:42:37;3.03;;;2.73;;
9888;SDS011;4983;42.112;24.738;2023-08-06T06:45:05;4.23;;;3.20;;
9888;SDS011;4983;42.112;24.738;2023-08-06T06:47:34;3.87;;;2.80;;
9888;SDS011;4983;42.112;24.738;2023-08-06T06:50:01;3.63;;;3.27;;
9888;SDS011;4983;42.112;24.738;2023-08-06T06:52:29;3.27;;;2.83;;
9888;SDS011;4983;42.112;24.738;2023-08-06T06:54:57;5.73;;;3.33;;
9888;SDS011;4983;42.112;24.738;2023-08-06T06:57:24;3.73;;;3.10;;
9888;SDS011;4983;42.112;24.738;2023-08-06T06:59:51;3.83;;;2.80;;
9888;SDS011;4983;42.112;24.738;2023-08-06T07:02:18;5.53;;;3.30;;
9888;SDS011;4983;42.112;24.738;2023-08-06T07:04:47;3.40;;;3.10;;
9888;SDS011;4983;42.112;24.738;2023-08-06T07:07:14;4.13;;;3.40;;
9888;SDS011;4983;42.112;24.738;2023-08-06T07:09:41;4.20;;;2.87;;
9888;SDS011;4983;42.112;24.738;2023-08-06T07:12:08;4.23;;;3.47;;
9888;SDS011;4983;42.112;24.738;2023-08-06T07:14:35;4.57;;;3.17;;
9888;SDS011;4983;42.112;24.738;2023-08-06T07:17:02;3.97;;;3.43;;
9888;SDS011;4983;42.112;24.738;2023-08-06T07:19:30;5.47;;;3.93;;
9888;SDS011;4983;42.112;24.738;2023-08-06T07:21:58;4.93;;;3.93;;
9888;SDS011;4983;42.112;24.738;2023-08-06T07:24:25;5.70;;;4.17;;
9888;SDS011;4983;42.112;24.738;2023-08-06T07:26:53;7.37;;;4.20;;
9888;SDS011;4983;42.112;24.738;2023-08-06T07:29:20;5.77;;;4.20;;
9888;SDS011;4983;42.112;24.738;2023-08-06T07:31:48;5.00;;;3.60;;
9888;SDS011;4983;42.112;24.738;2023-08-06T07:34:15;4.47;;;4.03;;
9888;SDS011;4983;42.112;24.738;2023-08-06T07:36:43;5.93;;;4.60;;
9888;SDS011;4983;42.112;24.738;2023-08-06T07:39:12;6.13;;;4.77;;
9888;SDS011;4983;42.112;24.738;2023-08-06T07:41:39;7.80;;;4.90;;
9888;SDS011;4983;42.112;24.738;2023-08-06T07:44:06;4.60;;;4.20;;
9888;SDS011;4983;42.112;24.738;2023-08-06T07:46:33;4.30;;;3.90;;
9888;SDS011;4983;42.112;24.738;2023-08-06T07:49:01;5.33;;;4.70;;
9888;SDS011;4983;42.112;24.738;2023-08-06T07:51:28;4.83;;;4.10;;
9888;SDS011;4983;42.112;24.738;2023-08-06T07:53:55;5.10;;;4.10;;
9888;SDS011;4983;42.112;24.738;2023-08-06T07:56:24;4.80;;;4.30;;
9888;SDS011;4983;42.112;24.738;2023-08-06T07:58:52;4.87;;;4.03;;
9888;SDS011;4983;42.112;24.738;2023-08-06T08:01:19;4.20;;;3.70;;
9888;SDS011;4983;42.112;24.738;2023-08-06T08:03:46;4.60;;;3.80;;
9888;SDS011;4983;42.112;24.738;2023-08-06T08:06:13;3.97;;;3.47;;
9888;SDS011;4983;42.112;24.738;2023-08-06T08:08:40;4.53;;;3.77;;
9888;SDS011;4983;42.112;24.738;2023-08-06T08:11:08;4.13;;;3.07;;
9888;SDS011;4983;42.112;24.738;2023-08-06T08:13:36;3.73;;;3.27;;
9888;SDS011;4983;42.112;24.738;2023-08-06T08:16:03;3.67;;;3.27;;
9888;SDS011;4983;42.112;24.738;2023-08-06T08:18:31;4.43;;;3.60;;
9888;SDS011;4983;42.112;24.738;2023-08-06T08:20:58;5.60;;;3.40;;
9888;SDS011;4983;42.112;24.738;2023-08-06T08:23:25;4.73;;;3.07;;
9888;SDS011;4983;42.112;24.738;2023-08-06T08:25:52;5.90;;;3.53;;
9888;SDS011;4983;42.112;24.738;2023-08-06T08:28:21;4.50;;;3.33;;
9888;SDS011;4983;42.112;24.738;2023-08-06T08:30:49;4.03;;;2.80;;
9888;SDS011;4983;42.112;24.738;2023-08-06T08:33:17;4.33;;;3.17;;
9888;SDS011;4983;42.112;24.738;2023-08-06T08:35:45;4.03;;;3.07;;
9888;SDS011;4983;42.112;24.738;2023-08-06T08:38:12;2.97;;;2.67;;
9888;SDS011;4983;42.112;24.738;2023-08-06T08:40:40;5.23;;;3.10;;
9888;SDS011;4983;42.112;24.738;2023-08-06T08:43:12;3.10;;;2.57;;
9888;SDS011;4983;42.112;24.738;2023-08-06T08:45:42;3.90;;;2.83;;
9888;SDS011;4983;42.112;24.738;2023-08-06T08:48:11;2.90;;;2.60;;
9888;SDS011;4983;42.112;24.738;2023-08-06T08:50:40;3.30;;;3.00;;
9888;SDS011;4983;42.112;24.738;2023-08-06T08:53:08;4.07;;;3.00;;
9888;SDS011;4983;42.112;24.738;2023-08-06T08:55:37;3.40;;;3.10;;
9888;SDS011;4983;42.112;24.738;2023-08-06T08:58:05;4.53;;;3.37;;
9888;SDS011;4983;42.112;24.738;2023-08-06T09:00:32;3.63;;;3.20;;
9888;SDS011;4983;42.112;24.738;2023-08-06T09:03:00;5.73;;;3.83;;
9888;SDS011;4983;42.112;24.738;2023-08-06T09:05:32;3.93;;;3.50;;
9888;SDS011;4983;42.112;24.738;2023-08-06T09:08:01;4.87;;;3.50;;
9888;SDS011;4983;42.112;24.738;2023-08-06T09:10:29;6.20;;;4.07;;
9888;SDS011;4983;42.112;24.738;2023-08-06T09:12:57;6.00;;;4.07;;
9888;SDS011;4983;42.112;24.738;2023-08-06T09:15:26;7.97;;;4.30;;
9888;SDS011;4983;42.112;24.738;2023-08-06T09:17:54;4.83;;;3.97;;
9888;SDS011;4983;42.112;24.738;2023-08-06T09:20:21;4.53;;;3.73;;
9888;SDS011;4983;42.112;24.738;2023-08-06T09:22:50;3.73;;;3.17;;
9888;SDS011;4983;42.112;24.738;2023-08-06T09:25:20;4.80;;;3.80;;
9888;SDS011;4983;42.112;24.738;2023-08-06T09:27:51;4.23;;;3.83;;
9888;SDS011;4983;42.112;24.738;2023-08-06T09:30:28;4.33;;;3.20;;
9888;SDS011;4983;42.112;24.738;2023-08-06T09:32:57;3.07;;;2.50;;
9888;SDS011;4983;42.112;24.738;2023-08-06T09:35:27;2.63;;;2.40;;
9888;SDS011;4983;42.112;24.738;2023-08-06T09:37:58;3.67;;;2.50;;
9888;SDS011;4983;42.112;24.738;2023-08-06T09:40:33;2.30;;;2.10;;
9888;SDS011;4983;42.112;24.738;2023-08-06T09:43:01;2.43;;;2.20;;
9888;SDS011;4983;42.112;24.738;2023-08-06T09:45:29;3.53;;;2.50;;
9888;SDS011;4983;42.112;24.738;2023-08-06T09:47:59;3.47;;;2.70;;
9888;SDS011;4983;42.112;24.738;2023-08-06T09:50:28;3.50;;;3.20;;
9888;SDS011;4983;42.112;24.738;2023-08-06T09:52:58;4.50;;;3.77;;
9888;SDS011;4983;42.112;24.738;2023-08-06T09:55:26;4.90;;;3.43;;
9888;SDS011;4983;42.112;24.738;2023-08-06T09:57:54;3.80;;;3.30;;
9888;SDS011;4983;42.112;24.738;2023-08-06T10:00:22;4.37;;;3.77;;
9888;SDS011;4983;42.112;24.738;2023-08-06T10:02:52;4.30;;;3.87;;
9888;SDS011;4983;42.112;24.738;2023-08-06T10:05:21;4.20;;;3.57;;
9888;SDS011;4983;42.112;24.738;2023-08-06T10:07:50;4.93;;;3.80;;
9888;SDS011;4983;42.112;24.738;2023-08-06T10:10:19;5.10;;;4.00;;
9888;SDS011;4983;42.112;24.738;2023-08-06T10:12:47;4.67;;;4.23;;
9888;SDS011;4983;42.112;24.738;2023-08-06T10:15:17;5.17;;;4.30;;
9888;SDS011;4983;42.112;24.738;2023-08-06T10:17:48;4.13;;;3.63;;
9888;SDS011;4983;42.112;24.738;2023-08-06T10:20:20;3.60;;;3.30;;
9888;SDS011;4983;42.112;24.738;2023-08-06T10:22:59;7.00;;;3.47;;
9888;SDS011;4983;42.112;24.738;2023-08-06T10:25:31;3.80;;;3.40;;
9888;SDS011;4983;42.112;24.738;2023-08-06T10:28:00;3.50;;;3.20;;
9888;SDS011;4983;42.112;24.738;2023-08-06T10:30:28;4.43;;;3.93;;
9888;SDS011;4983;42.112;24.738;2023-08-06T10:32:57;5.23;;;3.80;;
9888;SDS011;4983;42.112;24.738;2023-08-06T10:35:27;4.37;;;3.60;;
9888;SDS011;4983;42.112;24.738;2023-08-06T10:38:04;4.70;;;3.17;;
9888;SDS011;4983;42.112;24.738;2023-08-06T10:40:35;3.60;;;3.30;;
9888;SDS011;4983;42.112;24.738;2023-08-06T10:43:03;3.30;;;3.00;;
9888;SDS011;4983;42.112;24.738;2023-08-06T10:45:34;4.10;;;3.40;;
9888;SDS011;4983;42.112;24.738;2023-08-06T10:48:02;3.50;;;3.20;;
9888;SDS011;4983;42.112;24.738;2023-08-06T10:50:30;3.63;;;3.33;;
9888;SDS011;4983;42.112;24.738;2023-08-06T10:52:57;6.87;;;3.43;;
9888;SDS011;4983;42.112;24.738;2023-08-06T10:55:30;3.23;;;2.93;;
9888;SDS011;4983;42.112;24.738;2023-08-06T10:57:58;3.30;;;3.00;;
9888;SDS011;4983;42.112;24.738;2023-08-06T11:00:25;3.20;;;2.90;;
9888;SDS011;4983;42.112;24.738;2023-08-06T11:02:53;3.67;;;3.37;;
9888;SDS011;4983;42.112;24.738;2023-08-06T11:05:20;3.60;;;3.20;;
9888;SDS011;4983;42.112;24.738;2023-08-06T11:07:47;3.83;;;3.10;;
9888;SDS011;4983;42.112;24.738;2023-08-06T11:10:16;3.70;;;3.30;;
9888;SDS011;4983;42.112;24.738;2023-08-06T11:12:43;3.20;;;2.80;;
9888;SDS011;4983;42.112;24.738;2023-08-06T11:15:12;3.10;;;2.80;;
9888;SDS011;4983;42.112;24.738;2023-08-06T11:17:39;3.10;;;2.80;;
9888;SDS011;4983;42.112;24.738;2023-08-06T11:20:08;3.00;;;2.80;;
9888;SDS011;4983;42.112;24.738;2023-08-06T11:22:36;7.27;;;2.83;;
9888;SDS011;4983;42.112;24.738;2023-08-06T11:25:05;3.17;;;2.87;;
9888;SDS011;4983;42.112;24.738;2023-08-06T11:27:33;3.77;;;2.60;;
9888;SDS011;4983;42.112;24.738;2023-08-06T11:30:00;4.20;;;2.80;;
9888;SDS011;4983;42.112;24.738;2023-08-06T11:32:29;3.17;;;2.87;;
9888;SDS011;4983;42.112;24.738;2023-08-06T11:34:56;2.50;;;2.30;;
9888;SDS011;4983;42.112;24.738;2023-08-06T11:37:23;4.80;;;2.93;;
9888;SDS011;4983;42.112;24.738;2023-08-06T11:39:51;2.73;;;2.53;;
9888;SDS011;4983;42.112;24.738;2023-08-06T11:42:18;2.87;;;2.63;;
9888;SDS011;4983;42.112;24.738;2023-08-06T11:44:45;2.80;;;2.60;;
9888;SDS011;4983;42.112;24.738;2023-08-06T11:47:13;3.00;;;2.70;;
9888;SDS011;4983;42.112;24.738;2023-08-06T11:49:43;2.80;;;2.50;;
9888;SDS011;4983;42.112;24.738;2023-08-06T11:52:16;2.70;;;2.50;;
9888;SDS011;4983;42.112;24.738;2023-08-06T11:54:46;3.47;;;2.20;;
9888;SDS011;4983;42.112;24.738;2023-08-06T11:57:14;2.37;;;2.17;;
9888;SDS011;4983;42.112;24.738;2023-08-06T11:59:42;2.90;;;2.20;;
9888;SDS011;4983;42.112;24.738;2023-08-06T12:02:09;2.43;;;2.00;;
9888;SDS011;4983;42.112;24.738;2023-08-06T12:07:30;1.70;;;1.60;;
9888;SDS011;4983;42.112;24.738;2023-08-06T12:09:57;1.70;;;1.60;;
9888;SDS011;4983;42.112;24.738;2023-08-06T12:12:25;1.60;;;1.50;;
9888;SDS011;4983;42.112;24.738;2023-08-06T12:14:52;2.33;;;1.87;;
9888;SDS011;4983;42.112;24.738;2023-08-06T12:17:19;2.00;;;1.70;;
9888;SDS011;4983;42.112;24.738;2023-08-06T12:19:46;1.80;;;1.70;;
9888;SDS011;4983;42.112;24.738;2023-08-06T12:22:17;2.10;;;1.90;;
9888;SDS011;4983;42.112;24.738;2023-08-06T12:24:45;2.00;;;1.80;;
9888;SDS011;4983;42.112;24.738;2023-08-06T12:27:13;5.20;;;2.13;;
9888;SDS011;4983;42.112;24.738;2023-08-06T12:29:42;1.83;;;1.63;;
9888;SDS011;4983;42.112;24.738;2023-08-06T12:32:10;1.77;;;1.43;;
9888;SDS011;4983;42.112;24.738;2023-08-06T12:34:38;1.93;;;1.70;;
9888;SDS011;4983;42.112;24.738;2023-08-06T12:37:05;2.10;;;1.90;;
9888;SDS011;4983;42.112;24.738;2023-08-06T12:39:34;3.93;;;1.67;;
9888;SDS011;4983;42.112;24.738;2023-08-06T12:42:02;1.73;;;1.47;;
9888;SDS011;4983;42.112;24.738;2023-08-06T12:44:30;1.90;;;1.63;;
9888;SDS011;4983;42.112;24.738;2023-08-06T12:46:57;1.77;;;1.60;;
9888;SDS011;4983;42.112;24.738;2023-08-06T12:49:25;2.30;;;1.83;;
9888;SDS011;4983;42.112;24.738;2023-08-06T12:51:56;1.77;;;1.63;;
9888;SDS011;4983;42.112;24.738;2023-08-06T12:54:25;2.40;;;1.53;;
9888;SDS011;4983;42.112;24.738;2023-08-06T12:56:56;1.73;;;1.57;;
9888;SDS011;4983;42.112;24.738;2023-08-06T12:59:23;2.47;;;1.70;;
9888;SDS011;4983;42.112;24.738;2023-08-06T13:01:50;3.00;;;2.00;;
9888;SDS011;4983;42.112;24.738;2023-08-06T13:04:17;2.17;;;1.60;;
9888;SDS011;4983;42.112;24.738;2023-08-06T13:06:44;3.33;;;1.93;;
9888;SDS011;4983;42.112;24.738;2023-08-06T13:09:12;1.97;;;1.60;;
9888;SDS011;4983;42.112;24.738;2023-08-06T13:11:40;1.87;;;1.70;;
9888;SDS011;4983;42.112;24.738;2023-08-06T13:14:11;1.67;;;1.57;;
9888;SDS011;4983;42.112;24.738;2023-08-06T13:16:41;1.90;;;1.70;;
9888;SDS011;4983;42.112;24.738;2023-08-06T13:19:10;1.73;;;1.47;;
9888;SDS011;4983;42.112;24.738;2023-08-06T13:21:57;1.80;;;1.70;;
9888;SDS011;4983;42.112;24.738;2023-08-06T13:24:27;1.43;;;1.33;;
9888;SDS011;4983;42.112;24.738;2023-08-06T13:26:54;1.47;;;1.37;;
9888;SDS011;4983;42.112;24.738;2023-08-06T13:29:24;3.73;;;1.50;;
9888;SDS011;4983;42.112;24.738;2023-08-06T13:31:51;1.57;;;1.47;;
9888;SDS011;4983;42.112;24.738;2023-08-06T13:34:18;3.23;;;1.60;;
9888;SDS011;4983;42.112;24.738;2023-08-06T13:36:46;1.60;;;1.50;;
9888;SDS011;4983;42.112;24.738;2023-08-06T13:39:13;1.80;;;1.67;;
9888;SDS011;4983;42.112;24.738;2023-08-06T13:41:42;1.60;;;1.40;;
9888;SDS011;4983;42.112;24.738;2023-08-06T13:44:09;2.50;;;1.83;;
9888;SDS011;4983;42.112;24.738;2023-08-06T13:46:40;1.50;;;1.30;;
9888;SDS011;4983;42.112;24.738;2023-08-06T13:49:08;1.40;;;1.30;;
9888;SDS011;4983;42.112;24.738;2023-08-06T13:51:35;1.50;;;1.40;;
9888;SDS011;4983;42.112;24.738;2023-08-06T13:54:03;1.57;;;1.43;;
9888;SDS011;4983;42.112;24.738;2023-08-06T13:56:31;2.07;;;1.43;;
9888;SDS011;4983;42.112;24.738;2023-08-06T13:59:00;1.43;;;1.30;;
9888;SDS011;4983;42.112;24.738;2023-08-06T14:01:27;2.20;;;1.60;;
9888;SDS011;4983;42.112;24.738;2023-08-06T14:03:56;2.03;;;1.37;;
9888;SDS011;4983;42.112;24.738;2023-08-06T14:06:25;1.60;;;1.50;;
9888;SDS011;4983;42.112;24.738;2023-08-06T14:08:52;2.57;;;1.50;;
9888;SDS011;4983;42.112;24.738;2023-08-06T14:11:21;3.07;;;1.50;;
9888;SDS011;4983;42.112;24.738;2023-08-06T14:13:49;1.50;;;1.20;;
9888;SDS011;4983;42.112;24.738;2023-08-06T14:16:16;2.03;;;1.13;;
9888;SDS011;4983;42.112;24.738;2023-08-06T14:18:45;1.77;;;1.20;;
9888;SDS011;4983;42.112;24.738;2023-08-06T14:21:14;1.93;;;1.53;;
9888;SDS011;4983;42.112;24.738;2023-08-06T14:23:42;1.83;;;1.30;;
9888;SDS011;4983;42.112;24.738;2023-08-06T14:26:09;1.63;;;1.20;;
9888;SDS011;4983;42.112;24.738;2023-08-06T14:28:36;1.50;;;1.30;;
9888;SDS011;4983;42.112;24.738;2023-08-06T14:31:04;1.43;;;1.20;;
9888;SDS011;4983;42.112;24.738;2023-08-06T14:33:32;1.40;;;1.30;;
9888;SDS011;4983;42.112;24.738;2023-08-06T14:36:00;1.57;;;1.47;;
9888;SDS011;4983;42.112;24.738;2023-08-06T14:38:29;2.30;;;1.53;;
9888;SDS011;4983;42.112;24.738;2023-08-06T14:40:57;3.00;;;1.30;;
9888;SDS011;4983;42.112;24.738;2023-08-06T14:43:25;1.70;;;1.60;;
9888;SDS011;4983;42.112;24.738;2023-08-06T14:45:52;1.73;;;1.43;;
9888;SDS011;4983;42.112;24.738;2023-08-06T14:48:19;2.13;;;1.40;;
9888;SDS011;4983;42.112;24.738;2023-08-06T14:50:46;2.83;;;1.67;;
9888;SDS011;4983;42.112;24.738;2023-08-06T14:53:14;1.67;;;1.57;;
9888;SDS011;4983;42.112;24.738;2023-08-06T14:55:43;2.10;;;1.40;;
9888;SDS011;4983;42.112;24.738;2023-08-06T14:58:10;1.67;;;1.43;;
9888;SDS011;4983;42.112;24.738;2023-08-06T15:00:37;1.30;;;1.20;;
9888;SDS011;4983;42.112;24.738;2023-08-06T15:03:06;1.77;;;1.40;;
9888;SDS011;4983;42.112;24.738;2023-08-06T15:05:33;1.80;;;1.30;;
9888;SDS011;4983;42.112;24.738;2023-08-06T15:08:01;1.57;;;1.47;;